sensor_id;sensor_type;location;lat;lon;timestamp;P1;durP1;ratioP1;P2;durP2;ratioP2
54191;SDS011;40101;53.002;6.488;2023-03-01T00:01:02;26.60;;;17.20;;
54191;SDS011;40101;53.002;6.488;2023-03-01T00:03:29;28.30;;;18.27;;
54191;SDS011;40101;53.002;6.488;2023-03-01T00:05:55;25.67;;;15.55;;
54191;SDS011;40101;53.002;6.488;2023-03-01T00:08:20;26.63;;;15.10;;
54191;SDS011;40101;53.002;6.488;2023-03-01T00:10:46;24.45;;;16.55;;
54191;SDS011;40101;53.002;6.488;2023-03-01T00:13:12;18.95;;;13.95;;
54191;SDS011;40101;53.002;6.488;2023-03-01T00:15:38;23.40;;;15.18;;
54191;SDS011;40101;53.002;6.488;2023-03-01T00:18:05;22.70;;;15.20;;
54191;SDS011;40101;53.002;6.488;2023-03-01T00:20:31;22.52;;;16.42;;
54191;SDS011;40101;53.002;6.488;2023-03-01T00:22:56;26.00;;;16.45;;
54191;SDS011;40101;53.002;6.488;2023-03-01T00:25:22;23.75;;;15.75;;
54191;SDS011;40101;53.002;6.488;2023-03-01T00:27:48;25.20;;;15.68;;
54191;SDS011;40101;53.002;6.488;2023-03-01T00:30:14;21.20;;;15.73;;
54191;SDS011;40101;53.002;6.488;2023-03-01T00:32:40;25.08;;;15.90;;
54191;SDS011;40101;53.002;6.488;2023-03-01T00:35:06;31.98;;;17.25;;
54191;SDS011;40101;53.002;6.488;2023-03-01T00:37:32;25.52;;;16.02;;
54191;SDS011;40101;53.002;6.488;2023-03-01T00:39:57;29.90;;;17.70;;
54191;SDS011;40101;53.002;6.488;2023-03-01T00:42:23;27.20;;;17.90;;
54191;SDS011;40101;53.002;6.488;2023-03-01T00:44:48;24.83;;;17.58;;
54191;SDS011;40101;53.002;6.488;2023-03-01T00:47:14;28.00;;;16.85;;
54191;SDS011;40101;53.002;6.488;2023-03-01T00:49:40;22.98;;;17.48;;
54191;SDS011;40101;53.002;6.488;2023-03-01T00:52:05;23.63;;;16.90;;
54191;SDS011;40101;53.002;6.488;2023-03-01T00:54:31;24.92;;;16.00;;
54191;SDS011;40101;53.002;6.488;2023-03-01T00:56:57;28.55;;;18.45;;
54191;SDS011;40101;53.002;6.488;2023-03-01T00:59:22;22.60;;;16.00;;
54191;SDS011;40101;53.002;6.488;2023-03-01T01:01:48;24.98;;;17.10;;
54191;SDS011;40101;53.002;6.488;2023-03-01T01:04:14;25.88;;;17.92;;
54191;SDS011;40101;53.002;6.488;2023-03-01T01:06:41;34.45;;;17.98;;
54191;SDS011;40101;53.002;6.488;2023-03-01T01:09:09;41.42;;;19.88;;
54191;SDS011;40101;53.002;6.488;2023-03-01T01:11:42;96.60;;;23.35;;
54191;SDS011;40101;53.002;6.488;2023-03-01T01:14:08;242.07;;;30.02;;
54191;SDS011;40101;53.002;6.488;2023-03-01T01:16:34;282.23;;;30.38;;
54191;SDS011;40101;53.002;6.488;2023-03-01T01:19:00;169.57;;;25.42;;
54191;SDS011;40101;53.002;6.488;2023-03-01T01:21:26;192.02;;;24.90;;
54191;SDS011;40101;53.002;6.488;2023-03-01T01:23:52;322.48;;;29.80;;
54191;SDS011;40101;53.002;6.488;2023-03-01T01:26:20;281.55;;;30.42;;
54191;SDS011;40101;53.002;6.488;2023-03-01T01:28:50;298.42;;;34.78;;
54191;SDS011;40101;53.002;6.488;2023-03-01T01:31:16;225.85;;;24.83;;
54191;SDS011;40101;53.002;6.488;2023-03-01T01:33:42;223.60;;;23.00;;
54191;SDS011;40101;53.002;6.488;2023-03-01T01:36:07;148.02;;;19.88;;
54191;SDS011;40101;53.002;6.488;2023-03-01T01:38:34;97.32;;;17.35;;
54191;SDS011;40101;53.002;6.488;2023-03-01T01:41:00;106.88;;;18.58;;
54191;SDS011;40101;53.002;6.488;2023-03-01T01:43:31;109.28;;;19.00;;
54191;SDS011;40101;53.002;6.488;2023-03-01T01:46:04;77.28;;;20.00;;
54191;SDS011;40101;53.002;6.488;2023-03-01T01:48:42;53.20;;;19.00;;
54191;SDS011;40101;53.002;6.488;2023-03-01T01:51:13;32.83;;;17.30;;
54191;SDS011;40101;53.002;6.488;2023-03-01T01:53:42;40.33;;;19.25;;
54191;SDS011;40101;53.002;6.488;2023-03-01T01:56:11;28.80;;;18.38;;
54191;SDS011;40101;53.002;6.488;2023-03-01T01:58:38;45.40;;;22.10;;
54191;SDS011;40101;53.002;6.488;2023-03-01T02:01:07;43.33;;;18.70;;
54191;SDS011;40101;53.002;6.488;2023-03-01T02:03:33;30.42;;;19.33;;
54191;SDS011;40101;53.002;6.488;2023-03-01T02:08:41;26.48;;;18.27;;
54191;SDS011;40101;53.002;6.488;2023-03-01T02:11:08;43.83;;;18.77;;
54191;SDS011;40101;53.002;6.488;2023-03-01T02:13:35;61.42;;;21.60;;
54191;SDS011;40101;53.002;6.488;2023-03-01T02:16:11;25.92;;;18.63;;
54191;SDS011;40101;53.002;6.488;2023-03-01T02:18:39;28.92;;;17.92;;
54191;SDS011;40101;53.002;6.488;2023-03-01T02:23:53;28.10;;;18.98;;
54191;SDS011;40101;53.002;6.488;2023-03-01T02:26:23;28.23;;;16.77;;
54191;SDS011;40101;53.002;6.488;2023-03-01T02:29:02;62.38;;;21.20;;
54191;SDS011;40101;53.002;6.488;2023-03-01T02:31:28;27.63;;;18.67;;
54191;SDS011;40101;53.002;6.488;2023-03-01T02:34:17;26.63;;;18.50;;
54191;SDS011;40101;53.002;6.488;2023-03-01T02:36:48;41.00;;;19.08;;
54191;SDS011;40101;53.002;6.488;2023-03-01T02:39:30;28.02;;;18.33;;
54191;SDS011;40101;53.002;6.488;2023-03-01T02:42:07;30.00;;;20.00;;
54191;SDS011;40101;53.002;6.488;2023-03-01T02:44:37;30.75;;;18.88;;
54191;SDS011;40101;53.002;6.488;2023-03-01T02:47:03;38.30;;;19.48;;
54191;SDS011;40101;53.002;6.488;2023-03-01T02:49:31;49.13;;;20.35;;
54191;SDS011;40101;53.002;6.488;2023-03-01T02:57:43;39.53;;;19.35;;
54191;SDS011;40101;53.002;6.488;2023-03-01T03:00:17;83.57;;;20.75;;
54191;SDS011;40101;53.002;6.488;2023-03-01T03:02:46;66.75;;;19.85;;
54191;SDS011;40101;53.002;6.488;2023-03-01T03:05:17;32.00;;;20.40;;
54191;SDS011;40101;53.002;6.488;2023-03-01T03:07:46;32.60;;;21.52;;
54191;SDS011;40101;53.002;6.488;2023-03-01T03:10:21;39.95;;;22.83;;
54191;SDS011;40101;53.002;6.488;2023-03-01T03:12:56;82.15;;;25.75;;
54191;SDS011;40101;53.002;6.488;2023-03-01T03:15:23;62.70;;;21.77;;
54191;SDS011;40101;53.002;6.488;2023-03-01T03:17:49;77.97;;;21.33;;
54191;SDS011;40101;53.002;6.488;2023-03-01T03:20:16;168.52;;;29.05;;
54191;SDS011;40101;53.002;6.488;2023-03-01T03:22:44;59.35;;;22.70;;
54191;SDS011;40101;53.002;6.488;2023-03-01T03:25:11;46.95;;;21.50;;
54191;SDS011;40101;53.002;6.488;2023-03-01T03:27:38;67.22;;;24.48;;
54191;SDS011;40101;53.002;6.488;2023-03-01T03:30:05;58.53;;;21.10;;
54191;SDS011;40101;53.002;6.488;2023-03-01T03:32:37;59.85;;;20.25;;
54191;SDS011;40101;53.002;6.488;2023-03-01T03:35:07;38.03;;;19.77;;
54191;SDS011;40101;53.002;6.488;2023-03-01T03:37:40;35.60;;;18.70;;
54191;SDS011;40101;53.002;6.488;2023-03-01T03:40:25;37.47;;;19.58;;
54191;SDS011;40101;53.002;6.488;2023-03-01T03:42:52;35.15;;;20.15;;
54191;SDS011;40101;53.002;6.488;2023-03-01T03:45:18;25.17;;;17.45;;
54191;SDS011;40101;53.002;6.488;2023-03-01T03:47:44;30.67;;;19.52;;
54191;SDS011;40101;53.002;6.488;2023-03-01T03:50:10;28.98;;;18.50;;
54191;SDS011;40101;53.002;6.488;2023-03-01T03:52:38;28.90;;;19.65;;
54191;SDS011;40101;53.002;6.488;2023-03-01T03:55:04;30.15;;;19.30;;
54191;SDS011;40101;53.002;6.488;2023-03-01T03:57:34;64.90;;;19.73;;
54191;SDS011;40101;53.002;6.488;2023-03-01T04:00:00;120.90;;;19.83;;
54191;SDS011;40101;53.002;6.488;2023-03-01T04:02:28;50.72;;;16.85;;
54191;SDS011;40101;53.002;6.488;2023-03-01T04:04:54;46.95;;;19.15;;
54191;SDS011;40101;53.002;6.488;2023-03-01T04:07:20;28.25;;;18.80;;
54191;SDS011;40101;53.002;6.488;2023-03-01T04:09:45;25.73;;;17.70;;
54191;SDS011;40101;53.002;6.488;2023-03-01T04:12:11;28.58;;;18.27;;
54191;SDS011;40101;53.002;6.488;2023-03-01T04:14:37;30.27;;;19.92;;
54191;SDS011;40101;53.002;6.488;2023-03-01T04:17:03;27.10;;;18.08;;
54191;SDS011;40101;53.002;6.488;2023-03-01T04:19:30;53.33;;;24.17;;
54191;SDS011;40101;53.002;6.488;2023-03-01T04:22:01;101.43;;;22.98;;
54191;SDS011;40101;53.002;6.488;2023-03-01T04:24:32;71.38;;;19.27;;
54191;SDS011;40101;53.002;6.488;2023-03-01T04:26:58;95.63;;;20.13;;
54191;SDS011;40101;53.002;6.488;2023-03-01T04:29:24;77.72;;;16.67;;
54191;SDS011;40101;53.002;6.488;2023-03-01T04:31:49;25.80;;;14.75;;
54191;SDS011;40101;53.002;6.488;2023-03-01T04:34:15;56.17;;;16.13;;
54191;SDS011;40101;53.002;6.488;2023-03-01T04:36:41;32.92;;;12.70;;
54191;SDS011;40101;53.002;6.488;2023-03-01T04:39:06;28.92;;;12.40;;
54191;SDS011;40101;53.002;6.488;2023-03-01T04:41:37;16.45;;;12.40;;
54191;SDS011;40101;53.002;6.488;2023-03-01T04:44:08;15.70;;;12.00;;
54191;SDS011;40101;53.002;6.488;2023-03-01T04:46:34;14.18;;;11.02;;
54191;SDS011;40101;53.002;6.488;2023-03-01T04:49:01;15.93;;;11.82;;
54191;SDS011;40101;53.002;6.488;2023-03-01T04:51:27;27.45;;;12.57;;
54191;SDS011;40101;53.002;6.488;2023-03-01T04:53:53;17.27;;;12.43;;
54191;SDS011;40101;53.002;6.488;2023-03-01T04:56:18;17.95;;;13.82;;
54191;SDS011;40101;53.002;6.488;2023-03-01T04:58:45;18.10;;;10.52;;
54191;SDS011;40101;53.002;6.488;2023-03-01T05:01:11;23.27;;;10.82;;
54191;SDS011;40101;53.002;6.488;2023-03-01T05:03:46;12.98;;;10.82;;
54191;SDS011;40101;53.002;6.488;2023-03-01T05:06:13;11.80;;;10.57;;
54191;SDS011;40101;53.002;6.488;2023-03-01T05:08:40;16.08;;;12.60;;
54191;SDS011;40101;53.002;6.488;2023-03-01T05:11:06;18.85;;;13.10;;
54191;SDS011;40101;53.002;6.488;2023-03-01T05:13:34;19.20;;;12.45;;
54191;SDS011;40101;53.002;6.488;2023-03-01T05:16:01;14.95;;;11.23;;
54191;SDS011;40101;53.002;6.488;2023-03-01T05:18:28;17.73;;;10.95;;
54191;SDS011;40101;53.002;6.488;2023-03-01T05:20:56;15.65;;;11.77;;
54191;SDS011;40101;53.002;6.488;2023-03-01T05:23:29;15.63;;;12.40;;
54191;SDS011;40101;53.002;6.488;2023-03-01T05:26:02;21.00;;;12.90;;
54191;SDS011;40101;53.002;6.488;2023-03-01T05:28:30;18.00;;;12.57;;
54191;SDS011;40101;53.002;6.488;2023-03-01T05:30:57;17.15;;;12.25;;
54191;SDS011;40101;53.002;6.488;2023-03-01T05:33:23;16.45;;;11.63;;
54191;SDS011;40101;53.002;6.488;2023-03-01T05:35:50;16.10;;;12.40;;
54191;SDS011;40101;53.002;6.488;2023-03-01T05:38:16;14.88;;;11.10;;
54191;SDS011;40101;53.002;6.488;2023-03-01T05:40:43;15.18;;;11.18;;
54191;SDS011;40101;53.002;6.488;2023-03-01T05:43:11;12.43;;;10.55;;
54191;SDS011;40101;53.002;6.488;2023-03-01T05:45:38;10.85;;;9.05;;
54191;SDS011;40101;53.002;6.488;2023-03-01T05:48:06;12.85;;;10.50;;
54191;SDS011;40101;53.002;6.488;2023-03-01T05:50:33;15.40;;;11.98;;
54191;SDS011;40101;53.002;6.488;2023-03-01T05:53:07;14.50;;;10.90;;
54191;SDS011;40101;53.002;6.488;2023-03-01T05:55:36;19.60;;;13.02;;
54191;SDS011;40101;53.002;6.488;2023-03-01T05:58:03;18.98;;;14.13;;
54191;SDS011;40101;53.002;6.488;2023-03-01T06:00:31;21.02;;;13.27;;
54191;SDS011;40101;53.002;6.488;2023-03-01T06:02:57;17.80;;;12.75;;
54191;SDS011;40101;53.002;6.488;2023-03-01T06:05:23;16.33;;;11.85;;
54191;SDS011;40101;53.002;6.488;2023-03-01T06:07:49;17.10;;;12.98;;
54191;SDS011;40101;53.002;6.488;2023-03-01T06:10:16;17.15;;;12.70;;
54191;SDS011;40101;53.002;6.488;2023-03-01T06:12:43;22.13;;;12.05;;
54191;SDS011;40101;53.002;6.488;2023-03-01T06:15:10;20.35;;;13.38;;
54191;SDS011;40101;53.002;6.488;2023-03-01T06:17:37;17.95;;;12.73;;
54191;SDS011;40101;53.002;6.488;2023-03-01T06:20:06;21.77;;;13.82;;
54191;SDS011;40101;53.002;6.488;2023-03-01T06:22:34;19.50;;;13.45;;
54191;SDS011;40101;53.002;6.488;2023-03-01T06:25:00;20.48;;;14.50;;
54191;SDS011;40101;53.002;6.488;2023-03-01T06:27:26;20.67;;;13.38;;
54191;SDS011;40101;53.002;6.488;2023-03-01T06:29:51;18.67;;;13.68;;
54191;SDS011;40101;53.002;6.488;2023-03-01T06:32:17;18.75;;;13.45;;
54191;SDS011;40101;53.002;6.488;2023-03-01T06:34:42;18.02;;;12.45;;
54191;SDS011;40101;53.002;6.488;2023-03-01T06:37:08;15.48;;;11.07;;
54191;SDS011;40101;53.002;6.488;2023-03-01T06:39:33;19.20;;;12.30;;
54191;SDS011;40101;53.002;6.488;2023-03-01T06:41:59;15.70;;;12.25;;
54191;SDS011;40101;53.002;6.488;2023-03-01T06:44:25;17.42;;;13.10;;
54191;SDS011;40101;53.002;6.488;2023-03-01T06:46:51;16.40;;;13.40;;
54191;SDS011;40101;53.002;6.488;2023-03-01T06:49:17;16.52;;;12.98;;
54191;SDS011;40101;53.002;6.488;2023-03-01T06:51:43;17.55;;;12.63;;
54191;SDS011;40101;53.002;6.488;2023-03-01T06:54:09;17.70;;;13.18;;
54191;SDS011;40101;53.002;6.488;2023-03-01T06:56:35;16.73;;;13.10;;
54191;SDS011;40101;53.002;6.488;2023-03-01T06:59:01;17.83;;;13.52;;
54191;SDS011;40101;53.002;6.488;2023-03-01T07:01:27;16.02;;;13.13;;
54191;SDS011;40101;53.002;6.488;2023-03-01T07:03:54;15.10;;;12.40;;
54191;SDS011;40101;53.002;6.488;2023-03-01T07:06:19;17.55;;;12.32;;
54191;SDS011;40101;53.002;6.488;2023-03-01T07:08:45;18.98;;;13.13;;
54191;SDS011;40101;53.002;6.488;2023-03-01T07:11:11;15.93;;;12.35;;
54191;SDS011;40101;53.002;6.488;2023-03-01T07:13:37;15.48;;;12.13;;
54191;SDS011;40101;53.002;6.488;2023-03-01T07:16:03;16.02;;;12.38;;
54191;SDS011;40101;53.002;6.488;2023-03-01T07:18:29;23.88;;;15.98;;
54191;SDS011;40101;53.002;6.488;2023-03-01T07:20:55;16.77;;;13.05;;
54191;SDS011;40101;53.002;6.488;2023-03-01T07:23:21;18.33;;;13.70;;
54191;SDS011;40101;53.002;6.488;2023-03-01T07:25:56;14.88;;;12.38;;
54191;SDS011;40101;53.002;6.488;2023-03-01T07:28:24;17.25;;;12.88;;
54191;SDS011;40101;53.002;6.488;2023-03-01T07:30:50;16.17;;;12.02;;
54191;SDS011;40101;53.002;6.488;2023-03-01T07:33:16;16.25;;;13.13;;
54191;SDS011;40101;53.002;6.488;2023-03-01T07:35:42;16.88;;;12.65;;
54191;SDS011;40101;53.002;6.488;2023-03-01T07:38:07;16.15;;;13.18;;
54191;SDS011;40101;53.002;6.488;2023-03-01T07:40:33;16.42;;;12.77;;
54191;SDS011;40101;53.002;6.488;2023-03-01T07:42:59;15.35;;;12.55;;
54191;SDS011;40101;53.002;6.488;2023-03-01T07:45:26;23.15;;;15.15;;
54191;SDS011;40101;53.002;6.488;2023-03-01T07:47:53;22.15;;;15.10;;
54191;SDS011;40101;53.002;6.488;2023-03-01T07:50:19;17.40;;;13.65;;
54191;SDS011;40101;53.002;6.488;2023-03-01T07:52:46;13.95;;;11.95;;
54191;SDS011;40101;53.002;6.488;2023-03-01T07:55:13;14.45;;;11.25;;
54191;SDS011;40101;53.002;6.488;2023-03-01T07:57:39;14.93;;;11.45;;
54191;SDS011;40101;53.002;6.488;2023-03-01T08:00:05;13.65;;;11.52;;
54191;SDS011;40101;53.002;6.488;2023-03-01T08:02:32;12.73;;;10.65;;
54191;SDS011;40101;53.002;6.488;2023-03-01T08:04:58;11.27;;;10.07;;
54191;SDS011;40101;53.002;6.488;2023-03-01T08:07:24;12.90;;;11.55;;
54191;SDS011;40101;53.002;6.488;2023-03-01T08:09:51;12.73;;;11.05;;
54191;SDS011;40101;53.002;6.488;2023-03-01T08:12:20;11.70;;;10.50;;
54191;SDS011;40101;53.002;6.488;2023-03-01T08:14:46;13.50;;;11.43;;
54191;SDS011;40101;53.002;6.488;2023-03-01T08:17:14;11.63;;;10.43;;
54191;SDS011;40101;53.002;6.488;2023-03-01T08:19:40;12.15;;;10.43;;
54191;SDS011;40101;53.002;6.488;2023-03-01T08:22:07;11.82;;;10.38;;
54191;SDS011;40101;53.002;6.488;2023-03-01T08:24:32;12.75;;;10.70;;
54191;SDS011;40101;53.002;6.488;2023-03-01T08:26:58;12.05;;;9.93;;
54191;SDS011;40101;53.002;6.488;2023-03-01T08:29:24;13.30;;;11.93;;
54191;SDS011;40101;53.002;6.488;2023-03-01T08:31:50;12.88;;;11.57;;
54191;SDS011;40101;53.002;6.488;2023-03-01T08:34:16;14.48;;;11.70;;
54191;SDS011;40101;53.002;6.488;2023-03-01T08:36:44;14.10;;;11.13;;
54191;SDS011;40101;53.002;6.488;2023-03-01T08:39:11;16.13;;;12.88;;
54191;SDS011;40101;53.002;6.488;2023-03-01T08:41:38;13.38;;;11.80;;
54191;SDS011;40101;53.002;6.488;2023-03-01T08:44:05;13.80;;;12.40;;
54191;SDS011;40101;53.002;6.488;2023-03-01T08:46:32;13.90;;;11.63;;
54191;SDS011;40101;53.002;6.488;2023-03-01T08:49:03;12.90;;;11.60;;
54191;SDS011;40101;53.002;6.488;2023-03-01T08:51:30;13.40;;;11.65;;
54191;SDS011;40101;53.002;6.488;2023-03-01T08:53:57;14.02;;;12.60;;
54191;SDS011;40101;53.002;6.488;2023-03-01T08:56:23;13.90;;;12.52;;
54191;SDS011;40101;53.002;6.488;2023-03-01T08:58:49;15.82;;;13.05;;
54191;SDS011;40101;53.002;6.488;2023-03-01T09:01:16;15.93;;;12.82;;
54191;SDS011;40101;53.002;6.488;2023-03-01T09:03:43;14.18;;;12.65;;
54191;SDS011;40101;53.002;6.488;2023-03-01T09:06:10;16.13;;;12.82;;
54191;SDS011;40101;53.002;6.488;2023-03-01T09:08:36;14.93;;;12.15;;
54191;SDS011;40101;53.002;6.488;2023-03-01T09:11:04;14.45;;;12.93;;
54191;SDS011;40101;53.002;6.488;2023-03-01T09:13:30;14.18;;;12.63;;
54191;SDS011;40101;53.002;6.488;2023-03-01T09:16:03;16.60;;;12.88;;
54191;SDS011;40101;53.002;6.488;2023-03-01T09:18:30;14.90;;;12.82;;
54191;SDS011;40101;53.002;6.488;2023-03-01T09:21:01;14.65;;;13.15;;
54191;SDS011;40101;53.002;6.488;2023-03-01T09:23:34;15.80;;;13.60;;
54191;SDS011;40101;53.002;6.488;2023-03-01T09:26:02;16.52;;;13.52;;
54191;SDS011;40101;53.002;6.488;2023-03-01T09:28:28;16.98;;;14.00;;
54191;SDS011;40101;53.002;6.488;2023-03-01T09:30:57;16.42;;;14.63;;
54191;SDS011;40101;53.002;6.488;2023-03-01T09:33:24;18.02;;;15.35;;
54191;SDS011;40101;53.002;6.488;2023-03-01T09:35:55;20.00;;;14.77;;
54191;SDS011;40101;53.002;6.488;2023-03-01T09:38:25;17.58;;;13.90;;
54191;SDS011;40101;53.002;6.488;2023-03-01T09:40:51;18.70;;;14.63;;
54191;SDS011;40101;53.002;6.488;2023-03-01T09:45:55;18.52;;;15.38;;
54191;SDS011;40101;53.002;6.488;2023-03-01T09:48:27;21.95;;;16.52;;
54191;SDS011;40101;53.002;6.488;2023-03-01T09:50:57;20.90;;;16.00;;
54191;SDS011;40101;53.002;6.488;2023-03-01T09:53:30;24.42;;;18.60;;
54191;SDS011;40101;53.002;6.488;2023-03-01T09:56:16;23.45;;;16.35;;
54191;SDS011;40101;53.002;6.488;2023-03-01T09:58:51;19.33;;;16.77;;
54191;SDS011;40101;53.002;6.488;2023-03-01T10:06:52;18.92;;;15.52;;
54191;SDS011;40101;53.002;6.488;2023-03-01T10:09:40;20.13;;;17.77;;
54191;SDS011;40101;53.002;6.488;2023-03-01T10:12:09;19.55;;;16.48;;
54191;SDS011;40101;53.002;6.488;2023-03-01T10:19:52;21.17;;;15.73;;
54191;SDS011;40101;53.002;6.488;2023-03-01T10:22:19;23.05;;;17.20;;
54191;SDS011;40101;53.002;6.488;2023-03-01T10:24:48;22.33;;;17.73;;
54191;SDS011;40101;53.002;6.488;2023-03-01T10:32:57;21.17;;;16.85;;
54191;SDS011;40101;53.002;6.488;2023-03-01T10:35:26;18.40;;;15.90;;
54191;SDS011;40101;53.002;6.488;2023-03-01T10:38:07;17.77;;;14.45;;
54191;SDS011;40101;53.002;6.488;2023-03-01T10:40:41;17.58;;;13.70;;
54191;SDS011;40101;53.002;6.488;2023-03-01T10:43:19;18.23;;;14.30;;
54191;SDS011;40101;53.002;6.488;2023-03-01T10:45:45;15.90;;;13.57;;
54191;SDS011;40101;53.002;6.488;2023-03-01T10:48:19;18.25;;;14.38;;
54191;SDS011;40101;53.002;6.488;2023-03-01T10:56:05;15.00;;;12.50;;
54191;SDS011;40101;53.002;6.488;2023-03-01T10:58:34;18.00;;;12.20;;
54191;SDS011;40101;53.002;6.488;2023-03-01T11:01:47;23.48;;;14.75;;
54191;SDS011;40101;53.002;6.488;2023-03-01T11:03:55;18.67;;;14.50;;
54191;SDS011;40101;53.002;6.488;2023-03-01T11:06:31;20.60;;;14.20;;
54191;SDS011;40101;53.002;6.488;2023-03-01T11:08:57;21.40;;;14.10;;
54191;SDS011;40101;53.002;6.488;2023-03-01T11:11:43;16.30;;;12.63;;
54191;SDS011;40101;53.002;6.488;2023-03-01T11:14:23;16.13;;;11.98;;
54191;SDS011;40101;53.002;6.488;2023-03-01T11:19:40;15.02;;;11.15;;
54191;SDS011;40101;53.002;6.488;2023-03-01T11:22:13;18.45;;;12.23;;
54191;SDS011;40101;53.002;6.488;2023-03-01T11:24:43;17.65;;;12.38;;
54191;SDS011;40101;53.002;6.488;2023-03-01T11:27:26;17.88;;;12.40;;
54191;SDS011;40101;53.002;6.488;2023-03-01T11:29:57;39.25;;;14.95;;
54191;SDS011;40101;53.002;6.488;2023-03-01T11:32:33;15.38;;;11.98;;
54191;SDS011;40101;53.002;6.488;2023-03-01T11:35:10;14.70;;;11.15;;
54191;SDS011;40101;53.002;6.488;2023-03-01T11:51:05;16.35;;;12.57;;
54191;SDS011;40101;53.002;6.488;2023-03-01T11:54:20;15.38;;;11.68;;
54191;SDS011;40101;53.002;6.488;2023-03-01T11:59:52;14.75;;;10.98;;
54191;SDS011;40101;53.002;6.488;2023-03-01T12:02:33;16.23;;;12.10;;
54191;SDS011;40101;53.002;6.488;2023-03-01T12:05:19;14.48;;;10.13;;
54191;SDS011;40101;53.002;6.488;2023-03-01T12:11:08;17.52;;;12.05;;
54191;SDS011;40101;53.002;6.488;2023-03-01T12:13:44;16.40;;;12.07;;
54191;SDS011;40101;53.002;6.488;2023-03-01T12:29:41;15.95;;;11.60;;
54191;SDS011;40101;53.002;6.488;2023-03-01T12:38:01;17.10;;;10.98;;
54191;SDS011;40101;53.002;6.488;2023-03-01T12:51:30;18.27;;;12.30;;
54191;SDS011;40101;53.002;6.488;2023-03-01T12:53:58;14.88;;;11.48;;
54191;SDS011;40101;53.002;6.488;2023-03-01T12:56:30;15.82;;;11.82;;
54191;SDS011;40101;53.002;6.488;2023-03-01T12:59:07;18.08;;;12.65;;
54191;SDS011;40101;53.002;6.488;2023-03-01T13:01:51;19.98;;;12.88;;
54191;SDS011;40101;53.002;6.488;2023-03-01T13:18:33;19.67;;;13.20;;
54191;SDS011;40101;53.002;6.488;2023-03-01T13:31:02;16.95;;;12.82;;
54191;SDS011;40101;53.002;6.488;2023-03-01T13:35:55;16.90;;;12.55;;
54191;SDS011;40101;53.002;6.488;2023-03-01T13:41:16;16.85;;;13.23;;
54191;SDS011;40101;53.002;6.488;2023-03-01T13:44:02;23.02;;;13.18;;
54191;SDS011;40101;53.002;6.488;2023-03-01T13:46:37;17.70;;;13.68;;
54191;SDS011;40101;53.002;6.488;2023-03-01T13:49:03;18.00;;;12.95;;
54191;SDS011;40101;53.002;6.488;2023-03-01T13:51:29;17.23;;;13.20;;
54191;SDS011;40101;53.002;6.488;2023-03-01T13:53:55;18.63;;;13.13;;
54191;SDS011;40101;53.002;6.488;2023-03-01T13:56:27;19.45;;;13.80;;
54191;SDS011;40101;53.002;6.488;2023-03-01T13:58:59;16.52;;;13.15;;
54191;SDS011;40101;53.002;6.488;2023-03-01T14:01:31;19.77;;;14.00;;
54191;SDS011;40101;53.002;6.488;2023-03-01T14:03:58;17.73;;;13.40;;
54191;SDS011;40101;53.002;6.488;2023-03-01T14:06:25;17.60;;;12.88;;
54191;SDS011;40101;53.002;6.488;2023-03-01T14:09:28;17.88;;;13.43;;
54191;SDS011;40101;53.002;6.488;2023-03-01T14:17:22;17.88;;;13.32;;
54191;SDS011;40101;53.002;6.488;2023-03-01T14:19:54;20.05;;;14.20;;
54191;SDS011;40101;53.002;6.488;2023-03-01T14:24:57;19.58;;;13.38;;
54191;SDS011;40101;53.002;6.488;2023-03-01T14:27:25;16.73;;;12.90;;
54191;SDS011;40101;53.002;6.488;2023-03-01T14:30:10;16.38;;;12.57;;
54191;SDS011;40101;53.002;6.488;2023-03-01T14:32:51;23.17;;;14.00;;
54191;SDS011;40101;53.002;6.488;2023-03-01T14:38:20;17.33;;;12.75;;
54191;SDS011;40101;53.002;6.488;2023-03-01T14:40:54;15.32;;;12.13;;
54191;SDS011;40101;53.002;6.488;2023-03-01T14:43:23;17.05;;;11.75;;
54191;SDS011;40101;53.002;6.488;2023-03-01T14:45:53;19.55;;;11.57;;
54191;SDS011;40101;53.002;6.488;2023-03-01T14:48:18;13.70;;;11.50;;
54191;SDS011;40101;53.002;6.488;2023-03-01T14:50:45;17.60;;;12.55;;
54191;SDS011;40101;53.002;6.488;2023-03-01T14:53:21;15.45;;;11.52;;
54191;SDS011;40101;53.002;6.488;2023-03-01T14:55:59;13.75;;;11.52;;
54191;SDS011;40101;53.002;6.488;2023-03-01T14:58:28;15.50;;;11.43;;
54191;SDS011;40101;53.002;6.488;2023-03-01T15:01:03;14.98;;;12.63;;
54191;SDS011;40101;53.002;6.488;2023-03-01T15:06:03;16.13;;;10.82;;
54191;SDS011;40101;53.002;6.488;2023-03-01T15:08:30;17.05;;;11.13;;
54191;SDS011;40101;53.002;6.488;2023-03-01T15:13:31;15.45;;;11.32;;
54191;SDS011;40101;53.002;6.488;2023-03-01T15:18:35;16.25;;;12.02;;
54191;SDS011;40101;53.002;6.488;2023-03-01T15:21:09;19.33;;;13.23;;
54191;SDS011;40101;53.002;6.488;2023-03-01T15:23:40;17.33;;;12.85;;
54191;SDS011;40101;53.002;6.488;2023-03-01T15:26:16;18.38;;;12.25;;
54191;SDS011;40101;53.002;6.488;2023-03-01T15:28:51;17.00;;;13.38;;
54191;SDS011;40101;53.002;6.488;2023-03-01T15:31:23;18.23;;;13.20;;
54191;SDS011;40101;53.002;6.488;2023-03-01T15:33:51;16.48;;;12.63;;
54191;SDS011;40101;53.002;6.488;2023-03-01T15:44:37;18.13;;;14.02;;
54191;SDS011;40101;53.002;6.488;2023-03-01T15:49:55;19.33;;;13.60;;
54191;SDS011;40101;53.002;6.488;2023-03-01T15:55:00;18.00;;;13.65;;
54191;SDS011;40101;53.002;6.488;2023-03-01T15:57:28;20.92;;;14.27;;
54191;SDS011;40101;53.002;6.488;2023-03-01T15:59:55;19.63;;;13.88;;
54191;SDS011;40101;53.002;6.488;2023-03-01T16:02:21;19.77;;;14.60;;
54191;SDS011;40101;53.002;6.488;2023-03-01T16:04:48;21.30;;;15.10;;
54191;SDS011;40101;53.002;6.488;2023-03-01T16:07:14;19.60;;;15.02;;
54191;SDS011;40101;53.002;6.488;2023-03-01T16:09:40;23.80;;;16.75;;
54191;SDS011;40101;53.002;6.488;2023-03-01T16:12:08;22.40;;;15.95;;
54191;SDS011;40101;53.002;6.488;2023-03-01T16:14:40;20.92;;;15.63;;
54191;SDS011;40101;53.002;6.488;2023-03-01T16:17:05;19.15;;;14.68;;
54191;SDS011;40101;53.002;6.488;2023-03-01T16:19:35;22.27;;;14.55;;
54191;SDS011;40101;53.002;6.488;2023-03-01T16:22:02;21.63;;;14.50;;
54191;SDS011;40101;53.002;6.488;2023-03-01T16:24:28;22.23;;;16.05;;
54191;SDS011;40101;53.002;6.488;2023-03-01T16:26:53;20.67;;;16.42;;
54191;SDS011;40101;53.002;6.488;2023-03-01T16:29:19;22.92;;;17.00;;
54191;SDS011;40101;53.002;6.488;2023-03-01T16:31:45;21.50;;;16.05;;
54191;SDS011;40101;53.002;6.488;2023-03-01T16:34:10;23.52;;;17.00;;
54191;SDS011;40101;53.002;6.488;2023-03-01T16:36:36;25.95;;;17.30;;
54191;SDS011;40101;53.002;6.488;2023-03-01T16:39:02;23.98;;;16.52;;
54191;SDS011;40101;53.002;6.488;2023-03-01T16:41:28;26.42;;;18.15;;
54191;SDS011;40101;53.002;6.488;2023-03-01T16:43:54;25.08;;;16.58;;
54191;SDS011;40101;53.002;6.488;2023-03-01T16:46:20;25.20;;;17.17;;
54191;SDS011;40101;53.002;6.488;2023-03-01T16:48:48;25.67;;;17.02;;
54191;SDS011;40101;53.002;6.488;2023-03-01T16:51:14;24.40;;;17.73;;
54191;SDS011;40101;53.002;6.488;2023-03-01T16:53:40;23.85;;;17.88;;
54191;SDS011;40101;53.002;6.488;2023-03-01T16:56:07;22.13;;;15.95;;
54191;SDS011;40101;53.002;6.488;2023-03-01T16:58:35;28.40;;;17.88;;
54191;SDS011;40101;53.002;6.488;2023-03-01T17:01:06;25.25;;;17.17;;